Amelia Court House, Virginia
Current Conditions -  °F | °C
As of 10:55 AM on Wednesday 26 Nov 2014 (Local Time) from KW81 Reporting Station
Overcast Overcast  
Wind Chill: 36°   Ceiling: 700
Heat Index: 41°   Visibility: 7mi
Dew Point: 39°   Wind: 7mph
Humidity: 93%   Direction: 20°NNE
Pressure: 29.95"   Gusts: NA
Location:  37.34°N, 77.98°W
Report Text: KW81 261555Z AUTO 02006KT 350V060 7SM OVC007 05/04 A2995 RMK AO1 P0003 T00500039
Loading
Personal Weather Stations






























Interactive Weather Map New forecast layout! Learn more

10-Day Weather Forecast

Advertisements
Track Severe Weather on mobile